createdAt,value
2018-11-27T00:01:06.101Z,35.10
2018-11-27T00:04:07.561Z,32.30
2018-11-27T00:06:37.253Z,31.57
2018-11-27T00:09:08.116Z,30.60
2018-11-27T00:11:37.865Z,31.03
2018-11-27T00:14:07.911Z,32.63
2018-11-27T00:16:37.668Z,32.00
2018-11-27T00:19:07.484Z,32.23
2018-11-27T00:21:37.224Z,31.33
2018-11-27T00:24:07.269Z,31.20
2018-11-27T00:26:36.944Z,30.77
2018-11-27T00:29:06.661Z,30.03
2018-11-27T00:31:36.351Z,30.23
2018-11-27T00:34:06.792Z,27.90
2018-11-27T00:36:36.480Z,30.03
2018-11-27T00:39:08.533Z,29.33
2018-11-27T00:41:38.257Z,29.00
2018-11-27T00:44:08.221Z,29.03
2018-11-27T00:46:38.113Z,28.63
2018-11-27T00:49:07.797Z,29.73
2018-11-27T00:51:37.460Z,31.23
2018-11-27T00:54:07.244Z,33.17
2018-11-27T00:56:36.913Z,32.03
2018-11-27T00:59:06.577Z,31.17
2018-11-27T01:01:36.261Z,31.57
2018-11-27T01:04:06.791Z,29.03
2018-11-27T01:06:36.472Z,29.67
2018-11-27T01:09:08.385Z,33.03
2018-11-27T01:11:38.112Z,29.30
2018-11-27T01:14:07.898Z,31.63
2018-11-27T01:16:37.558Z,29.40
2018-11-27T01:19:07.224Z,30.43
2018-11-27T01:21:36.879Z,28.20
2018-11-27T01:24:06.865Z,30.60
2018-11-27T01:26:36.506Z,29.07
2018-11-27T01:29:06.403Z,30.90
2018-11-27T01:31:36.080Z,28.63
2018-11-27T01:34:05.832Z,28.90
2018-11-27T01:36:35.686Z,27.53
2018-11-27T01:39:07.239Z,26.67
2018-11-27T01:41:36.881Z,25.37
2018-11-27T01:44:06.627Z,27.53
2018-11-27T01:46:36.388Z,29.43
2018-11-27T01:49:06.444Z,30.07
2018-11-27T01:51:36.120Z,29.17
2018-11-27T01:54:06.205Z,28.27
2018-11-27T01:56:35.931Z,28.53
2018-11-27T01:59:05.873Z,26.37
2018-11-27T02:01:35.561Z,27.30
2018-11-27T02:04:05.780Z,27.73
2018-11-27T02:06:35.500Z,26.87
2018-11-27T02:09:07.576Z,25.03
2018-11-27T02:11:37.228Z,23.00
2018-11-27T02:14:06.893Z,27.53
2018-11-27T02:16:36.568Z,24.03
2018-11-27T02:19:06.237Z,26.13
2018-11-27T02:21:35.885Z,25.83
2018-11-27T02:24:05.924Z,27.03
2018-11-27T02:26:35.583Z,26.40
2018-11-27T02:29:05.236Z,24.07
2018-11-27T02:31:34.895Z,25.17
2018-11-27T02:34:04.696Z,28.67
2018-11-27T02:36:34.342Z,26.27
2018-11-27T02:39:04.432Z,25.50
2018-11-27T02:41:34.088Z,26.43
2018-11-27T02:44:03.748Z,25.53
2018-11-27T02:46:33.447Z,24.83
2018-11-27T02:49:03.100Z,25.03
2018-11-27T02:51:32.884Z,26.83
2018-11-27T02:54:02.541Z,25.53
2018-11-27T02:56:32.188Z,26.83
2018-11-27T02:59:01.885Z,23.53
2018-11-27T03:01:31.670Z,24.83
2018-11-27T03:04:01.320Z,25.47
2018-11-27T03:06:30.965Z,26.17
2018-11-27T03:09:00.622Z,24.37
2018-11-27T03:11:30.271Z,23.20
2018-11-27T03:14:00.008Z,26.43
2018-11-27T03:16:29.769Z,24.43
2018-11-27T03:18:59.422Z,27.73
2018-11-27T03:21:29.074Z,26.13
2018-11-27T03:23:58.732Z,25.47
2018-11-27T03:26:28.396Z,26.97
2018-11-27T03:28:58.059Z,27.57
2018-11-27T03:31:27.697Z,27.60
2018-11-27T03:33:57.365Z,27.20
2018-11-27T03:36:27.045Z,26.90
2018-11-27T03:38:56.700Z,26.93
2018-11-27T03:41:26.393Z,25.43
2018-11-27T03:43:56.057Z,26.87
2018-11-27T03:46:25.793Z,25.97
2018-11-27T03:48:55.442Z,27.37
2018-11-27T03:51:25.088Z,25.30
2018-11-27T03:53:54.841Z,26.17
2018-11-27T03:56:24.494Z,27.43
2018-11-27T03:58:54.140Z,28.47
2018-11-27T04:01:23.797Z,28.87
2018-11-27T04:03:53.816Z,25.97
2018-11-27T04:06:23.465Z,25.87
2018-11-27T04:08:53.160Z,26.27
2018-11-27T04:11:22.771Z,30.07
2018-11-27T04:13:52.413Z,28.17
2018-11-27T04:16:22.077Z,30.60
2018-11-27T04:18:51.741Z,27.37
2018-11-27T04:21:21.389Z,27.33
2018-11-27T04:23:51.046Z,27.23
2018-11-27T04:26:20.695Z,24.90
2018-11-27T04:28:50.345Z,27.37
2018-11-27T04:31:20.011Z,27.83
2018-11-27T04:33:49.758Z,25.37
2018-11-27T04:36:19.373Z,26.20
2018-11-27T04:38:49.033Z,26.20
2018-11-27T04:41:19.459Z,25.57
2018-11-27T04:43:49.104Z,26.27
2018-11-27T04:46:18.872Z,26.80
2018-11-27T04:48:48.530Z,25.70
2018-11-27T04:51:18.289Z,28.40
2018-11-27T04:53:47.839Z,25.10
2018-11-27T04:56:17.503Z,24.63
2018-11-27T04:58:47.189Z,28.83
2018-11-27T05:01:16.851Z,29.30
2018-11-27T05:03:46.493Z,26.00
2018-11-27T05:06:16.182Z,25.40
2018-11-27T05:08:45.928Z,26.73
2018-11-27T05:11:15.648Z,24.50
2018-11-27T05:13:45.296Z,25.10
2018-11-27T05:16:14.969Z,25.40
2018-11-27T05:18:44.632Z,25.50
2018-11-27T05:21:14.389Z,26.03
2018-11-27T05:23:44.041Z,24.03
2018-11-27T05:26:13.726Z,29.47
2018-11-27T05:28:43.496Z,24.57
2018-11-27T05:31:13.109Z,26.27
2018-11-27T05:33:42.765Z,26.00
2018-11-27T05:36:12.470Z,25.07
2018-11-27T05:38:42.113Z,23.93
2018-11-27T05:41:11.772Z,28.00
2018-11-27T05:43:46.060Z,27.17
2018-11-27T05:46:11.085Z,29.63
2018-11-27T05:48:40.737Z,27.03
2018-11-27T05:51:10.393Z,29.00
2018-11-27T05:53:40.096Z,25.80
2018-11-27T05:56:09.754Z,25.73
2018-11-27T05:58:39.397Z,25.87
2018-11-27T06:01:09.148Z,24.13
2018-11-27T06:03:38.816Z,24.60
2018-11-27T06:06:08.497Z,25.90
2018-11-27T06:08:38.142Z,25.40
2018-11-27T06:11:07.784Z,26.10
2018-11-27T06:13:37.713Z,26.60
2018-11-27T06:16:07.361Z,23.80
2018-11-27T06:18:37.096Z,28.63
2018-11-27T06:21:06.831Z,24.50
2018-11-27T06:23:36.494Z,26.80
2018-11-27T06:26:06.169Z,28.50
2018-11-27T06:28:37.233Z,25.13
2018-11-27T06:31:07.063Z,24.13
2018-11-27T06:33:36.834Z,26.33
2018-11-27T06:36:06.829Z,24.57
2018-11-27T06:38:36.550Z,24.63
2018-11-27T06:41:06.328Z,25.53
2018-11-27T06:43:36.158Z,25.53
2018-11-27T06:46:06.202Z,26.67
2018-11-27T06:48:35.892Z,25.57
2018-11-27T06:51:05.577Z,25.90
2018-11-27T06:53:35.323Z,24.30
2018-11-27T06:56:05.250Z,25.97
2018-11-27T06:58:34.896Z,23.03
2018-11-27T07:01:04.576Z,24.87
2018-11-27T07:03:34.276Z,24.47
2018-11-27T07:06:03.956Z,24.93
2018-11-27T07:08:33.908Z,28.50
2018-11-27T07:11:03.595Z,25.37
2018-11-27T07:13:33.404Z,24.00
2018-11-27T07:16:03.120Z,23.57
2018-11-27T07:18:32.820Z,33.07
2018-11-27T07:21:02.738Z,29.30
2018-11-27T07:23:32.484Z,29.40
2018-11-27T07:26:02.156Z,35.83
2018-11-27T07:28:31.885Z,30.20
2018-11-27T07:31:01.628Z,30.83
2018-11-27T07:33:31.329Z,49.07
2018-11-27T07:36:00.997Z,79.50
2018-11-27T07:38:30.761Z,80.13
2018-11-27T07:41:00.426Z,64.00
2018-11-27T07:43:30.113Z,50.20
2018-11-27T07:45:59.847Z,38.37
2018-11-27T07:48:29.558Z,31.17
2018-11-27T07:50:59.260Z,28.53
2018-11-27T07:53:28.953Z,28.70
2018-11-27T07:55:58.685Z,27.07
2018-11-27T07:58:28.408Z,31.60
2018-11-27T08:00:58.073Z,29.23
2018-11-27T08:03:27.833Z,28.50
2018-11-27T08:05:57.496Z,30.70
2018-11-27T08:08:27.245Z,32.77
2018-11-27T08:10:56.899Z,32.03
2018-11-27T08:13:26.566Z,28.27
2018-11-27T08:15:56.289Z,29.70
2018-11-27T08:18:25.956Z,30.07
2018-11-27T08:20:55.645Z,29.53
2018-11-27T08:23:25.312Z,29.00
2018-11-27T08:25:54.985Z,32.27
2018-11-27T08:28:24.669Z,28.77
2018-11-27T08:30:54.337Z,28.47
2018-11-27T08:33:24.012Z,27.97
2018-11-27T08:35:53.850Z,28.77
2018-11-27T08:38:23.528Z,28.13
2018-11-27T08:40:53.188Z,26.97
2018-11-27T08:43:22.880Z,27.10
2018-11-27T08:45:52.549Z,26.27
2018-11-27T08:48:22.215Z,29.40
2018-11-27T08:50:51.941Z,28.60
2018-11-27T08:53:21.610Z,26.07
2018-11-27T08:55:51.505Z,25.93
2018-11-27T08:58:21.952Z,27.13
2018-11-27T09:00:51.682Z,28.87
2018-11-27T09:03:21.377Z,26.43
2018-11-27T09:05:51.042Z,30.27
2018-11-27T09:08:20.720Z,30.80
2018-11-27T09:10:50.417Z,29.27
2018-11-27T09:13:20.093Z,30.47
2018-11-27T09:15:49.840Z,27.07
2018-11-27T09:18:22.100Z,28.33
2018-11-27T09:20:51.760Z,25.93
2018-11-27T09:23:21.431Z,26.77
2018-11-27T09:25:51.076Z,30.00
2018-11-27T09:28:20.768Z,26.47
2018-11-27T09:30:50.431Z,28.80
2018-11-27T09:33:20.111Z,30.03
2018-11-27T09:35:49.794Z,28.93
2018-11-27T09:38:19.516Z,29.63
2018-11-27T09:40:49.218Z,32.23
2018-11-27T09:43:18.913Z,30.60
2018-11-27T09:45:49.348Z,31.17
2018-11-27T09:48:19.025Z,31.40
2018-11-27T09:50:48.696Z,31.80
2018-11-27T09:53:18.415Z,33.50
2018-11-27T09:55:48.081Z,31.27
2018-11-27T09:58:17.833Z,30.17
2018-11-27T10:00:47.500Z,30.30
2018-11-27T10:03:17.173Z,32.30
2018-11-27T10:05:46.837Z,35.53
2018-11-27T10:08:16.517Z,30.57
2018-11-27T10:10:46.176Z,29.97
2018-11-27T10:13:15.841Z,31.37
2018-11-27T10:15:45.544Z,32.27
2018-11-27T10:18:15.461Z,31.07
2018-11-27T10:20:45.092Z,30.13
2018-11-27T10:23:15.322Z,28.93
2018-11-27T10:25:44.961Z,31.40
2018-11-27T10:28:14.630Z,30.43
2018-11-27T10:30:44.341Z,27.63
2018-11-27T10:33:14.088Z,29.40
2018-11-27T10:35:50.249Z,31.00
2018-11-27T10:38:19.914Z,31.37
2018-11-27T10:40:49.640Z,29.60
2018-11-27T10:45:49.121Z,34.50
2018-11-27T10:47:33.627Z,30.83
2018-11-27T10:48:18.874Z,32.97
2018-11-27T10:50:48.585Z,30.60
2018-11-27T10:53:18.349Z,32.70
2018-11-27T10:55:48.021Z,30.73
2018-11-27T10:58:17.698Z,31.97
2018-11-27T11:00:52.868Z,31.70
2018-11-27T11:03:24.612Z,29.70
2018-11-27T11:05:56.024Z,30.23
2018-11-27T11:08:25.692Z,31.20
2018-11-27T11:10:55.373Z,36.47
2018-11-27T11:13:25.045Z,31.17
2018-11-27T11:15:54.710Z,25.97
2018-11-27T11:18:24.372Z,38.97
2018-11-27T11:20:54.040Z,33.90
2018-11-27T11:23:23.695Z,28.27
2018-11-27T11:25:53.425Z,32.57
2018-11-27T11:28:25.061Z,26.67
2018-11-27T11:30:54.819Z,28.00
2018-11-27T11:33:24.481Z,29.00
2018-11-27T11:35:54.229Z,29.80
2018-11-27T11:38:23.902Z,26.57
2018-11-27T11:40:53.640Z,27.13
2018-11-27T11:43:23.365Z,32.57
2018-11-27T11:45:53.033Z,36.30
2018-11-27T11:48:22.704Z,29.97
2018-11-27T11:50:52.391Z,26.47
2018-11-27T11:53:22.097Z,36.27
2018-11-27T11:55:51.813Z,25.53
2018-11-27T11:58:21.531Z,30.13
2018-11-27T12:00:52.529Z,26.27
2018-11-27T12:03:22.285Z,29.43
2018-11-27T12:05:52.125Z,26.73
2018-11-27T12:08:21.799Z,31.90
2018-11-27T12:10:51.597Z,33.97
2018-11-27T12:13:21.365Z,32.47
2018-11-27T12:15:51.028Z,25.23
2018-11-27T12:18:20.698Z,27.37
2018-11-27T12:20:50.361Z,28.67
2018-11-27T12:23:20.090Z,26.53
2018-11-27T12:25:49.789Z,29.27
2018-11-27T12:28:19.464Z,35.07
2018-11-27T12:30:49.208Z,28.33
2018-11-27T12:33:18.935Z,28.00
2018-11-27T12:35:48.613Z,28.97
2018-11-27T12:38:18.306Z,30.93
2018-11-27T12:40:48.053Z,46.77
2018-11-27T12:43:17.786Z,32.47
2018-11-27T12:45:47.453Z,26.93
2018-11-27T12:48:17.193Z,28.10
2018-11-27T12:50:48.104Z,29.73
2018-11-27T12:53:18.492Z,28.63
2018-11-27T12:55:49.348Z,74.53
2018-11-27T12:58:19.042Z,35.50
2018-11-27T13:00:48.800Z,33.77
2018-11-27T13:03:18.504Z,33.67
2018-11-27T13:05:48.198Z,30.63
2018-11-27T13:08:19.132Z,29.87
2018-11-27T13:10:48.875Z,36.47
2018-11-27T13:13:18.609Z,59.10
2018-11-27T13:15:48.280Z,56.13
2018-11-27T13:18:18.001Z,51.30
2018-11-27T13:20:47.754Z,42.53
2018-11-27T13:23:17.433Z,35.03
2018-11-27T13:25:47.320Z,31.77
2018-11-27T13:28:16.997Z,30.70
2018-11-27T13:30:56.211Z,35.03
2018-11-27T13:33:29.372Z,34.77
2018-11-27T13:35:59.598Z,31.00
2018-11-27T13:38:29.326Z,33.20
2018-11-27T13:40:59.000Z,33.47
2018-11-27T13:43:29.491Z,29.13
2018-11-27T13:46:00.286Z,33.60
2018-11-27T13:48:30.013Z,33.80
2018-11-27T13:50:59.700Z,29.03
2018-11-27T13:53:29.421Z,30.67
2018-11-27T13:55:59.196Z,33.30
2018-11-27T13:58:28.965Z,31.37
2018-11-27T14:00:58.637Z,32.00
2018-11-27T14:03:28.309Z,32.93
2018-11-27T14:05:58.089Z,32.67
2018-11-27T14:08:27.845Z,33.63
2018-11-27T14:10:57.503Z,36.33
2018-11-27T14:13:27.164Z,35.23
2018-11-27T14:15:56.840Z,33.57
2018-11-27T14:18:26.532Z,34.80
2018-11-27T14:20:56.201Z,37.37
2018-11-27T14:23:25.961Z,33.33
2018-11-27T14:25:55.620Z,33.73
2018-11-27T14:28:25.291Z,34.90
2018-11-27T14:30:54.944Z,35.13
2018-11-27T14:33:24.629Z,39.23
2018-11-27T14:35:54.297Z,35.53
2018-11-27T14:38:23.977Z,34.60
2018-11-27T14:40:53.726Z,38.90
2018-11-27T14:43:23.404Z,34.70
2018-11-27T14:45:53.072Z,35.00
2018-11-27T14:48:22.753Z,32.63
2018-11-27T14:50:52.417Z,36.90
2018-11-27T14:53:22.100Z,37.63
2018-11-27T14:55:51.776Z,45.17
2018-11-27T14:58:21.480Z,49.47
2018-11-27T15:00:51.169Z,36.37
2018-11-27T15:03:21.066Z,40.53
2018-11-27T15:05:50.740Z,57.77
2018-11-27T15:08:20.411Z,55.37
2018-11-27T15:10:50.092Z,46.47
2018-11-27T15:13:19.768Z,55.40
2018-11-27T15:15:49.877Z,44.33
2018-11-27T15:18:19.543Z,37.97
2018-11-27T15:20:49.228Z,42.13
2018-11-27T15:23:18.901Z,36.73
2018-11-27T15:25:48.716Z,38.23
2018-11-27T15:28:18.388Z,37.50
2018-11-27T15:30:48.066Z,128.63
2018-11-27T15:33:18.765Z,40.40
2018-11-27T15:35:48.461Z,42.10
2018-11-27T15:38:18.201Z,45.40
2018-11-27T15:40:47.900Z,51.83
2018-11-27T15:43:17.620Z,45.90
2018-11-27T15:45:47.377Z,50.10
2018-11-27T15:48:17.059Z,43.73
2018-11-27T15:50:46.748Z,41.10
2018-11-27T15:53:16.448Z,42.37
2018-11-27T15:55:46.132Z,37.50
2018-11-27T15:58:15.826Z,40.10
2018-11-27T16:00:45.697Z,41.47
2018-11-27T16:03:15.395Z,40.77
2018-11-27T16:05:46.715Z,40.23
2018-11-27T16:08:16.470Z,41.00
2018-11-27T16:10:46.140Z,39.87
2018-11-27T16:13:15.905Z,38.43
2018-11-27T16:15:45.700Z,44.23
2018-11-27T16:18:15.396Z,44.70
2018-11-27T16:20:45.082Z,38.90
2018-11-27T16:23:14.766Z,39.00
2018-11-27T16:25:44.541Z,36.03
2018-11-27T16:28:14.201Z,37.13
2018-11-27T16:30:43.968Z,40.43
2018-11-27T16:33:13.638Z,41.43
2018-11-27T16:35:43.492Z,46.60
2018-11-27T16:38:13.161Z,42.47
2018-11-27T16:40:42.913Z,36.60
2018-11-27T16:43:12.589Z,37.83
2018-11-27T16:45:42.264Z,37.23
2018-11-27T16:48:11.928Z,39.37
2018-11-27T16:50:41.600Z,49.83
2018-11-27T16:53:11.273Z,69.63
2018-11-27T16:55:40.980Z,69.60
2018-11-27T16:58:10.764Z,55.67
2018-11-27T17:00:40.503Z,55.00
2018-11-27T17:03:10.206Z,47.77
2018-11-27T17:05:41.567Z,47.83
2018-11-27T17:08:11.251Z,46.27
2018-11-27T17:10:42.499Z,42.67
2018-11-27T17:13:13.125Z,47.03
2018-11-27T17:15:42.817Z,42.17
2018-11-27T17:18:12.932Z,43.97
2018-11-27T17:20:44.091Z,42.50
2018-11-27T17:23:16.158Z,45.27
2018-11-27T17:25:45.903Z,40.73
2018-11-27T17:28:17.113Z,43.73
2018-11-27T17:30:54.833Z,52.33
2018-11-27T17:33:36.681Z,84.97
2018-11-27T17:36:08.264Z,92.10
2018-11-27T17:38:38.066Z,49.63
2018-11-27T17:41:08.558Z,39.53
2018-11-27T17:43:38.668Z,36.90
2018-11-27T17:46:08.481Z,40.20
2018-11-27T17:48:38.148Z,44.67
2018-11-27T17:51:08.037Z,38.87
2018-11-27T17:53:37.796Z,37.37
2018-11-27T17:56:07.510Z,33.70
2018-11-27T17:58:37.230Z,92.67
2018-11-27T18:01:06.943Z,98.20
2018-11-27T18:03:36.624Z,86.30
2018-11-27T18:06:06.405Z,43.87
2018-11-27T18:08:36.067Z,31.97
2018-11-27T18:11:05.949Z,55.77
2018-11-27T18:13:36.047Z,50.57
2018-11-27T18:16:05.813Z,50.10
2018-11-27T18:18:35.488Z,38.37
2018-11-27T18:21:05.551Z,37.53
2018-11-27T18:23:35.288Z,38.40
2018-11-27T18:26:05.141Z,93.80
2018-11-27T18:28:34.937Z,51.93
2018-11-27T18:31:04.972Z,71.77
2018-11-27T18:33:34.661Z,46.63
2018-11-27T18:36:04.428Z,50.60
2018-11-27T18:38:34.146Z,34.57
2018-11-27T18:41:03.848Z,37.87
2018-11-27T18:43:33.528Z,43.10
2018-11-27T18:46:03.544Z,47.70
2018-11-27T18:48:33.350Z,130.27
2018-11-27T18:51:03.108Z,43.03
2018-11-27T18:53:32.878Z,33.37
2018-11-27T18:56:02.720Z,32.03
2018-11-27T18:58:32.484Z,39.53
2018-11-27T19:01:02.504Z,65.00
2018-11-27T19:03:32.213Z,45.80
2018-11-27T19:06:02.054Z,43.33
2018-11-27T19:08:31.941Z,47.87
2018-11-27T19:11:01.689Z,44.17
2018-11-27T19:13:31.428Z,37.93
2018-11-27T19:16:01.320Z,36.23
2018-11-27T19:18:31.001Z,36.50
2018-11-27T19:21:00.664Z,35.97
2018-11-27T19:23:30.371Z,42.40
2018-11-27T19:26:00.093Z,39.80
2018-11-27T19:28:29.796Z,39.30
2018-11-27T19:30:59.482Z,46.47
2018-11-27T19:33:29.372Z,46.77
2018-11-27T19:35:59.040Z,43.47
2018-11-27T19:38:28.728Z,41.30
2018-11-27T19:40:58.396Z,39.90
2018-11-27T19:43:28.088Z,42.80
2018-11-27T19:45:57.760Z,37.37
2018-11-27T19:48:27.451Z,36.10
2018-11-27T19:50:57.193Z,38.93
2018-11-27T19:53:27.657Z,44.60
2018-11-27T19:55:57.445Z,45.40
2018-11-27T19:58:27.168Z,40.63
2018-11-27T20:00:56.952Z,40.90
2018-11-27T20:03:26.668Z,39.70
2018-11-27T20:05:56.334Z,38.57
2018-11-27T20:08:26.188Z,51.80
2018-11-27T20:10:55.881Z,40.13
2018-11-27T20:13:25.601Z,33.33
2018-11-27T20:15:55.316Z,37.47
2018-11-27T20:18:25.041Z,34.83
2018-11-27T20:20:54.697Z,34.13
2018-11-27T20:23:24.410Z,32.90
2018-11-27T20:25:55.342Z,33.20
2018-11-27T20:28:25.100Z,29.57
2018-11-27T20:30:54.758Z,33.77
2018-11-27T20:33:24.495Z,29.80
2018-11-27T20:35:54.429Z,30.17
2018-11-27T20:38:24.176Z,28.13
2018-11-27T20:40:53.840Z,29.97
2018-11-27T20:43:23.597Z,30.70
2018-11-27T20:45:53.433Z,33.10
2018-11-27T20:48:23.205Z,35.50
2018-11-27T20:50:52.945Z,32.80
2018-11-27T20:53:22.769Z,35.90
2018-11-27T20:55:52.619Z,33.87
2018-11-27T20:58:22.457Z,34.40
2018-11-27T21:00:52.828Z,39.57
2018-11-27T21:03:22.596Z,36.80
2018-11-27T21:05:52.286Z,39.03
2018-11-27T21:08:22.052Z,37.97
2018-11-27T21:10:51.720Z,38.67
2018-11-27T21:13:21.485Z,38.97
2018-11-27T21:15:51.159Z,35.20
2018-11-27T21:18:20.856Z,37.60
2018-11-27T21:20:50.585Z,37.63
2018-11-27T21:23:20.270Z,36.57
2018-11-27T21:25:49.968Z,35.63
2018-11-27T21:28:19.881Z,38.97
2018-11-27T21:30:51.025Z,39.17
2018-11-27T21:33:20.716Z,36.70
2018-11-27T21:35:50.416Z,36.57
2018-11-27T21:38:20.211Z,37.73
2018-11-27T21:40:49.869Z,38.10
2018-11-27T21:43:19.532Z,35.53
2018-11-27T21:45:49.198Z,36.40
2018-11-27T21:48:18.941Z,38.30
2018-11-27T21:50:48.608Z,38.37
2018-11-27T21:53:18.262Z,37.10
2018-11-27T21:55:47.942Z,37.00
2018-11-27T21:58:17.604Z,35.23
2018-11-27T22:00:47.457Z,37.10
2018-11-27T22:03:17.196Z,35.10
2018-11-27T22:05:46.872Z,36.00
2018-11-27T22:08:16.613Z,36.20
2018-11-27T22:10:46.277Z,37.67
2018-11-27T22:13:15.949Z,36.70
2018-11-27T22:15:46.457Z,36.07
2018-11-27T22:18:16.117Z,35.40
2018-11-27T22:20:45.856Z,36.57
2018-11-27T22:23:15.621Z,40.60
2018-11-27T22:25:45.293Z,39.63
2018-11-27T22:28:14.957Z,39.77
2018-11-27T22:30:44.629Z,40.47
2018-11-27T22:33:14.337Z,38.20
2018-11-27T22:35:44.009Z,37.50
2018-11-27T22:38:13.681Z,36.07
2018-11-27T22:40:43.553Z,38.47
2018-11-27T22:43:13.281Z,40.37
2018-11-27T22:45:42.983Z,45.53
2018-11-27T22:48:12.798Z,37.80
2018-11-27T22:50:42.493Z,38.30
2018-11-27T22:53:12.196Z,40.07
2018-11-27T22:55:41.872Z,35.20
2018-11-27T22:58:11.539Z,37.53
2018-11-27T23:00:46.581Z,38.03
2018-11-27T23:03:16.253Z,34.07
2018-11-27T23:05:46.008Z,37.90
2018-11-27T23:08:15.692Z,36.10
2018-11-27T23:10:46.383Z,35.50
2018-11-27T23:13:16.153Z,36.60
2018-11-27T23:15:45.868Z,36.90
2018-11-27T23:18:15.530Z,32.07
2018-11-27T23:20:45.206Z,33.70
2018-11-27T23:23:14.870Z,37.33
2018-11-27T23:25:44.544Z,31.90
2018-11-27T23:28:14.205Z,32.70
2018-11-27T23:30:43.882Z,31.30
2018-11-27T23:33:13.553Z,30.93
2018-11-27T23:35:43.241Z,34.63
2018-11-27T23:38:12.902Z,34.27
2018-11-27T23:40:42.580Z,37.40
2018-11-27T23:43:14.670Z,33.33
2018-11-27T23:45:44.421Z,31.77
2018-11-27T23:48:14.090Z,33.80
2018-11-27T23:50:43.753Z,33.73
2018-11-27T23:53:13.421Z,37.23
2018-11-27T23:55:43.087Z,36.93
2018-11-27T23:58:12.772Z,35.80
